Time;durP1;ratioP1;P1;durP2;ratioP2;P2;SDS_P1;SDS_P2;PMS_P1;PMS_P2;Temp;Humidity;BMP_temperature;BMP_pressure;BME280_temperature;BME280_humidity;BME280_pressure;Samples;Min_cycle;Max_cycle;Signal;HPM_P1;HPM_P2
2023/02/12 00:02:17;;;;;;;4.83;3.87;;;;;;;6.98;100.00;102365.22;5070898;28;20178;-72
2023/02/12 00:04:42;;;;;;;5.57;3.20;;;;;;;6.99;100.00;102358.72;5071268;28;20185;-75
2023/02/12 00:07:08;;;;;;;4.10;3.80;;;;;;;6.98;100.00;102355.19;5069462;28;20302;-72
2023/02/12 00:09:34;;;;;;;8.97;5.30;;;;;;;6.99;100.00;102367.72;5071028;28;20726;-71
2023/02/12 00:11:59;;;;;;;3.87;3.57;;;;;;;6.99;100.00;102369.59;5070345;28;20677;-72
2023/02/12 00:14:24;;;;;;;5.97;5.47;;;;;;;7.00;100.00;102369.34;5070851;28;20182;-74
2023/02/12 00:16:49;;;;;;;5.40;4.90;;;;;;;7.00;100.00;102368.53;5070716;28;20174;-72
2023/02/12 00:19:15;;;;;;;3.83;3.47;;;;;;;7.01;100.00;102375.63;5070487;28;20682;-73
2023/02/12 00:21:40;;;;;;;9.60;3.23;;;;;;;7.01;100.00;102367.47;5070648;28;20205;-76
2023/02/12 00:24:06;;;;;;;4.33;3.70;;;;;;;7.02;100.00;102378.09;5069445;28;20175;-72
2023/02/12 00:26:31;;;;;;;6.17;5.03;;;;;;;7.03;100.00;102376.19;5070449;28;20622;-75
2023/02/12 00:28:56;;;;;;;6.97;2.47;;;;;;;7.05;100.00;102380.31;5070342;28;20631;-73
2023/02/12 00:31:25;;;;;;;2.77;2.63;;;;;;;7.05;100.00;102377.59;5070285;28;20210;-81
2023/02/12 00:33:50;;;;;;;3.53;3.17;;;;;;;7.05;100.00;102379.50;5070715;28;20178;-81
2023/02/12 00:36:19;;;;;;;8.47;4.07;;;;;;;7.01;100.00;102372.91;5073949;28;20171;-81
2023/02/12 00:38:45;;;;;;;7.40;3.23;;;;;;;7.02;100.00;102371.84;5071233;28;20178;-81
2023/02/12 00:41:11;;;;;;;11.77;3.20;;;;;;;7.03;100.00;102368.88;5070148;28;20231;-77
2023/02/12 00:43:36;;;;;;;3.50;3.20;;;;;;;7.06;100.00;102375.72;5070232;28;20174;-80
2023/02/12 00:46:03;;;;;;;7.40;2.27;;;;;;;7.06;100.00;102379.25;5070091;28;20174;-80
2023/02/12 00:48:29;;;;;;;5.63;3.87;;;;;;;7.08;100.00;102385.28;5069051;28;20206;-81
2023/02/12 00:50:54;;;;;;;2.53;2.27;;;;;;;7.08;100.00;102388.00;5069985;28;20716;-81
2023/02/12 00:53:20;;;;;;;2.73;2.03;;;;;;;7.08;100.00;102379.00;5073812;28;20187;-80
2023/02/12 00:55:45;;;;;;;2.40;2.20;;;;;;;7.09;100.00;102389.66;5073838;28;20177;-81
2023/02/12 00:58:11;;;;;;;2.10;1.07;;;;;;;7.09;100.00;102386.94;5073601;28;20175;-80
2023/02/12 01:00:36;;;;;;;1.63;1.53;;;;;;;7.09;100.00;102384.25;5073728;28;20253;-80
2023/02/12 01:03:03;;;;;;;13.87;2.57;;;;;;;7.09;100.00;102399.72;5072374;28;20630;-82
2023/02/12 01:05:29;;;;;;;1.47;1.37;;;;;;;7.10;100.00;102390.50;5072282;28;20171;-80
2023/02/12 01:07:55;;;;;;;2.63;2.43;;;;;;;7.09;100.00;102392.38;5073588;28;20209;-81
2023/02/12 01:10:20;;;;;;;1.60;1.50;;;;;;;7.08;100.00;102396.16;5073172;28;20243;-80
2023/02/12 01:12:47;;;;;;;2.00;1.90;;;;;;;7.07;100.00;102393.66;5073502;28;20660;-81
2023/02/12 01:15:13;;;;;;;0.97;0.97;;;;;;;7.09;100.00;102399.72;5073441;28;20243;-80
2023/02/12 01:17:38;;;;;;;1.60;1.50;;;;;;;7.08;100.00;102398.03;5073302;28;20223;-82
2023/02/12 01:20:06;;;;;;;14.50;3.80;;;;;;;7.06;100.00;102406.44;5073495;28;20182;-80
2023/02/12 01:22:34;;;;;;;10.33;3.43;;;;;;;7.07;100.00;102401.81;5073334;28;20653;-81
2023/02/12 01:24:59;;;;;;;1.10;1.00;;;;;;;7.05;100.00;102404.78;5073625;28;20185;-79
2023/02/12 01:27:24;;;;;;;5.03;0.80;;;;;;;7.05;100.00;102401.25;5073472;28;20174;-73
2023/02/12 01:29:50;;;;;;;3.23;3.03;;;;;;;7.05;100.00;102403.97;5071939;28;20236;-72
2023/02/12 01:32:15;;;;;;;1.37;1.33;;;;;;;7.02;100.00;102405.28;5073055;28;20606;-71
2023/02/12 01:34:40;;;;;;;0.20;0.17;;;;;;;7.04;100.00;102399.59;5072160;28;20179;-72
2023/02/12 01:37:06;;;;;;;0.83;0.83;;;;;;;7.03;100.00;102406.09;5072978;28;20674;-72
2023/02/12 01:39:31;;;;;;;0.77;0.67;;;;;;;7.04;100.00;102403.13;5073084;28;20723;-73
2023/02/12 01:41:56;;;;;;;0.83;0.83;;;;;;;7.05;100.00;102398.53;5071442;28;20558;-72
2023/02/12 01:44:25;;;;;;;1.40;1.40;;;;;;;7.07;100.00;102408.09;5072884;28;20224;-80
2023/02/12 01:46:59;;;;;;;0.17;0.17;;;;;;;7.07;100.00;102402.66;5071109;28;20174;-81
2023/02/12 01:49:36;;;;;;;1.23;1.13;;;;;;;7.08;100.00;102403.47;5071527;28;20170;-79
2023/02/12 01:52:07;;;;;;;0.30;0.30;;;;;;;7.06;100.00;102403.72;5072616;28;20289;-82
2023/02/12 01:54:34;;;;;;;1.60;1.50;;;;;;;7.07;100.00;102408.09;5072739;28;20213;-81
2023/02/12 01:57:02;;;;;;;0.23;0.23;;;;;;;7.07;100.00;102405.38;5071339;28;20541;-81
2023/02/12 01:59:28;;;;;;;1.53;1.43;;;;;;;7.02;100.00;102401.72;5071276;28;20265;-79
2023/02/12 02:01:54;;;;;;;4.20;2.53;;;;;;;7.01;100.00;102406.34;5072391;28;20170;-82
2023/02/12 02:04:25;;;;;;;1.33;1.23;;;;;;;7.01;100.00;102402.78;5071595;28;20630;-80
2023/02/12 02:07:00;;;;;;;3.03;2.87;;;;;;;7.01;100.00;102408.22;5072265;28;20201;-80
2023/02/12 02:09:27;;;;;;;1.50;1.40;;;;;;;6.97;100.00;102401.63;5072396;28;20165;-82
2023/02/12 02:14:39;;;;;;;2.30;2.17;;;;;;;6.90;100.00;102396.31;5072522;28;20254;-82
2023/02/12 02:17:26;;;;;;;2.07;0.97;;;;;;;6.84;100.00;102392.66;5070803;28;20625;-78
2023/02/12 02:20:01;;;;;;;2.93;2.73;;;;;;;6.83;100.00;102401.06;5072855;28;20257;-78
2023/02/12 02:22:58;;;;;;;2.67;2.47;;;;;;;6.79;100.00;102399.84;5070663;28;20178;-81
2023/02/12 02:25:52;;;;;;;6.63;3.57;;;;;;;6.76;100.00;102398.44;5057556;28;20196;-80
2023/02/12 02:28:36;;;;;;;2.27;1.40;;;;;;;6.75;100.00;102398.69;5071931;28;20296;-82
2023/02/12 02:31:46;;;;;;;1.57;1.43;;;;;;;6.73;100.00;102403.53;5071780;28;20205;-80
2023/02/12 02:34:23;;;;;;;2.93;2.73;;;;;;;6.74;100.00;102394.31;5048523;28;20194;-81
2023/02/12 02:37:16;;;;;;;0.70;0.70;;;;;;;6.76;100.00;102395.72;5071928;28;20167;-82
2023/02/12 02:40:13;;;;;;;1.27;1.23;;;;;;;6.77;100.00;102391.94;5072013;28;20189;-81
2023/02/12 02:43:04;;;;;;;4.53;2.87;;;;;;;6.77;100.00;102391.13;5071728;28;20163;-81
2023/02/12 02:45:42;;;;;;;2.17;2.07;;;;;;;6.81;100.00;102384.16;5072013;28;20163;-81
2023/02/12 02:48:23;;;;;;;1.80;1.70;;;;;;;6.80;100.00;102383.34;5071845;28;20228;-81
2023/02/12 02:50:55;;;;;;;3.07;2.30;;;;;;;6.80;100.00;102387.94;5071313;28;20665;-82
2023/02/12 02:53:28;;;;;;;1.77;1.60;;;;;;;6.78;100.00;102390.06;5070282;28;20167;-80
2023/02/12 02:55:57;;;;;;;1.50;1.40;;;;;;;6.77;100.00;102391.94;5071764;28;20171;-80
2023/02/12 02:58:30;;;;;;;1.47;1.03;;;;;;;6.77;100.00;102399.28;5071546;28;20171;-80
2023/02/12 03:01:05;;;;;;;1.03;1.03;;;;;;;6.76;100.00;102406.59;5071184;28;20187;-81
2023/02/12 03:03:47;;;;;;;1.07;0.87;;;;;;;6.75;100.00;102404.13;5071618;28;20178;-80
2023/02/12 03:06:39;;;;;;;0.80;0.80;;;;;;;6.76;100.00;102398.44;5069836;28;20715;-80
2023/02/12 03:09:30;;;;;;;2.33;2.17;;;;;;;6.75;100.00;102406.84;5071144;28;20173;-79
2023/02/12 03:12:02;;;;;;;0.60;0.60;;;;;;;6.73;100.00;102407.06;5070589;28;20658;-81
2023/02/12 03:14:33;;;;;;;4.33;2.47;;;;;;;6.73;100.00;102406.25;5071193;28;20191;-82
2023/02/12 03:17:33;;;;;;;0.83;0.83;;;;;;;6.73;100.00;102406.25;5071120;28;20170;-78
2023/02/12 03:20:08;;;;;;;1.90;1.80;;;;;;;6.72;100.00;102400.00;5069700;28;20178;-74
2023/02/12 03:22:38;;;;;;;3.23;3.00;;;;;;;6.73;100.00;102411.69;5071039;28;20173;-79
2023/02/12 03:25:13;;;;;;;2.47;0.83;;;;;;;6.72;100.00;102412.75;5070998;28;20202;-81
2023/02/12 03:27:43;;;;;;;1.60;0.77;;;;;;;6.72;100.00;102412.75;5070990;28;20219;-81
2023/02/12 03:30:10;;;;;;;2.40;1.67;;;;;;;6.73;100.00;102411.69;5069389;28;20199;-82
2023/02/12 03:32:50;;;;;;;2.87;2.67;;;;;;;6.72;100.00;102416.28;5071361;28;20240;-81
2023/02/12 03:35:30;;;;;;;2.33;2.13;;;;;;;6.70;100.00;102420.31;5071417;28;20166;-81
2023/02/12 03:37:59;;;;;;;3.23;1.07;;;;;;;6.68;100.00;102422.44;5071304;28;20174;-81
2023/02/12 03:40:32;;;;;;;3.23;3.03;;;;;;;6.67;100.00;102420.78;5070285;28;20170;-82
2023/02/12 03:43:07;;;;;;;3.57;3.27;;;;;;;6.64;100.00;102426.66;5070567;28;20208;-81
2023/02/12 03:45:36;;;;;;;3.43;3.17;;;;;;;6.63;100.00;102427.75;5069054;28;20224;-82
2023/02/12 03:48:29;;;;;;;2.30;1.77;;;;;;;6.62;100.00;102428.81;5070286;28;20201;-81
2023/02/12 03:51:02;;;;;;;2.63;2.40;;;;;;;6.61;100.00;102427.97;5070072;28;20194;-79
2023/02/12 03:53:30;;;;;;;3.33;3.10;;;;;;;6.58;100.00;102428.44;5070337;28;20181;-80
2023/02/12 03:56:01;;;;;;;2.67;2.57;;;;;;;6.56;100.00;102431.41;5070346;28;20159;-78
2023/02/12 03:58:29;;;;;;;3.67;2.77;;;;;;;6.56;100.00;102438.72;5070227;28;20174;-82
2023/02/12 04:00:55;;;;;;;1.57;1.47;;;;;;;6.53;100.00;102440.03;5068710;28;20634;-81
2023/02/12 04:03:20;;;;;;;12.10;1.03;;;;;;;6.53;100.00;102447.34;5070286;28;20216;-80
2023/02/12 04:05:46;;;;;;;1.63;1.53;;;;;;;6.52;100.00;102440.28;5068709;28;20202;-81
2023/02/12 04:08:12;;;;;;;0.37;0.37;;;;;;;6.50;100.00;102439.66;5070313;28;20175;-80
2023/02/12 04:11:06;;;;;;;3.43;2.77;;;;;;;6.49;100.00;102446.16;5068527;28;20194;-80
2023/02/12 04:14:10;;;;;;;4.87;2.47;;;;;;;6.48;100.00;102448.03;5070194;28;20174;-78
2023/02/12 04:17:01;;;;;;;2.90;2.70;;;;;;;6.48;100.00;102449.94;5065801;28;20665;-80
2023/02/12 04:20:09;;;;;;;2.23;2.13;;;;;;;6.49;100.00;102454.28;5070115;28;20178;-81
2023/02/12 04:22:52;;;;;;;1.73;1.23;;;;;;;6.49;100.00;102457.00;5069549;28;20304;-82
2023/02/12 04:25:27;;;;;;;1.63;1.57;;;;;;;6.48;100.00;102458.91;5069970;28;20181;-79
2023/02/12 04:28:05;;;;;;;2.43;2.33;;;;;;;6.48;100.00;102466.22;5072978;28;20311;-81
2023/02/12 04:30:44;;;;;;;2.77;2.57;;;;;;;6.48;100.00;102460.78;5072489;28;20583;-80
2023/02/12 04:33:17;;;;;;;1.13;1.03;;;;;;;6.48;100.00;102467.03;5073978;28;20297;-80
2023/02/12 04:35:46;;;;;;;0.37;0.37;;;;;;;6.48;100.00;102466.22;5073821;28;20159;-81
2023/02/12 04:38:21;;;;;;;2.80;2.70;;;;;;;6.49;100.00;102465.16;5073646;28;20266;-80
2023/02/12 04:40:47;;;;;;;6.03;2.57;;;;;;;6.47;100.00;102470.81;5073774;28;20213;-82
2023/02/12 04:43:13;;;;;;;0.60;0.60;;;;;;;6.45;100.00;102472.94;5073622;28;20182;-81
2023/02/12 04:45:38;;;;;;;1.37;1.27;;;;;;;6.42;100.00;102476.13;5073628;28;20193;-79
2023/02/12 04:48:05;;;;;;;1.53;1.53;;;;;;;6.41;100.00;102479.09;5072356;28;20826;-83
2023/02/12 04:50:42;;;;;;;0.30;0.30;;;;;;;6.39;100.00;102478.50;5073414;28;20206;-81
2023/02/12 04:53:07;;;;;;;0.23;0.23;;;;;;;6.41;100.00;102482.63;5073470;28;20195;-80
2023/02/12 04:55:33;;;;;;;1.03;1.03;;;;;;;6.43;100.00;102483.22;5073565;28;20320;-82
2023/02/12 04:57:59;;;;;;;2.00;1.83;;;;;;;6.40;100.00;102494.56;5073283;28;20190;-81
2023/02/12 05:00:24;;;;;;;4.10;3.83;;;;;;;6.39;100.00;102497.50;5073184;28;20182;-82
2023/02/12 05:02:49;;;;;;;2.23;1.93;;;;;;;6.36;100.00;102496.06;5073361;28;20174;-82
2023/02/12 05:05:15;;;;;;;1.57;1.50;;;;;;;6.33;100.00;102488.38;5073347;28;20171;-80
2023/02/12 05:07:40;;;;;;;1.83;1.77;;;;;;;6.35;100.00;102488.16;5073159;28;20190;-81
2023/02/12 05:10:06;;;;;;;0.07;0.07;;;;;;;6.35;100.00;102485.44;5071252;28;20205;-81
2023/02/12 05:12:31;;;;;;;0.93;0.93;;;;;;;6.36;100.00;102482.47;5073785;28;20190;-81
2023/02/12 05:14:57;;;;;;;0.17;0.17;;;;;;;6.39;100.00;102483.94;5073356;28;20178;-81
2023/02/12 05:17:23;;;;;;;4.23;3.20;;;;;;;6.37;100.00;102486.88;5072925;28;20190;-80
2023/02/12 05:19:48;;;;;;;1.10;0.60;;;;;;;6.36;100.00;102484.38;5073210;28;20273;-82
2023/02/12 05:22:13;;;;;;;1.10;1.10;;;;;;;6.34;100.00;102476.47;5072829;28;20273;-83
2023/02/12 05:24:39;;;;;;;0.30;0.30;;;;;;;6.35;100.00;102480.00;5073017;28;20261;-82
2023/02/12 05:27:04;;;;;;;0.20;0.20;;;;;;;6.37;100.00;102486.06;5072802;28;20618;-81
2023/02/12 05:29:30;;;;;;;3.30;3.10;;;;;;;6.35;100.00;102488.97;5072856;28;20575;-82
2023/02/12 05:31:55;;;;;;;2.13;0.90;;;;;;;6.34;100.00;102487.31;5072692;28;20206;-79
2023/02/12 05:34:20;;;;;;;0.10;0.10;;;;;;;6.32;100.00;102483.19;5072824;28;20175;-80
2023/02/12 05:36:46;;;;;;;1.10;1.10;;;;;;;6.29;100.00;102484.50;5072660;28;20626;-80
2023/02/12 05:39:11;;;;;;;1.70;1.60;;;;;;;6.28;100.00;102487.44;5072756;28;20308;-82
2023/02/12 05:41:36;;;;;;;2.73;2.63;;;;;;;6.25;100.00;102481.41;5072391;28;20178;-81
2023/02/12 05:44:03;;;;;;;1.40;1.40;;;;;;;6.24;100.00;102478.94;5072945;28;20175;-78
2023/02/12 05:46:29;;;;;;;0.40;0.40;;;;;;;6.24;100.00;102476.22;5071964;28;20221;-74
2023/02/12 05:48:54;;;;;;;0.87;0.87;;;;;;;6.22;100.00;102486.47;5072589;28;20210;-79
2023/02/12 05:51:25;;;;;;;0.70;0.50;;;;;;;6.21;100.00;102484.81;5072572;28;20209;-82
2023/02/12 05:53:54;;;;;;;0.97;0.97;;;;;;;6.18;100.00;102482.56;5071324;28;20179;-79
2023/02/12 05:56:25;;;;;;;1.77;1.67;;;;;;;6.17;100.00;102478.19;5072209;28;20182;-77
2023/02/12 05:58:59;;;;;;;0.07;0.07;;;;;;;6.19;100.00;102481.50;5072898;28;20187;-83
2023/02/12 06:01:27;;;;;;;0.03;0.03;;;;;;;6.17;100.00;102481.72;5072510;28;20652;-84
2023/02/12 06:03:53;;;;;;;1.97;1.83;;;;;;;6.17;100.00;102489.06;5072651;28;20178;-85
2023/02/12 06:06:18;;;;;;;0.67;0.67;;;;;;;6.17;100.00;102489.88;5072341;28;20559;-85
2023/02/12 06:08:47;;;;;;;0.63;0.43;;;;;;;6.17;100.00;102489.88;5072434;28;20178;-74
2023/02/12 06:11:14;;;;;;;0.00;0.00;;;;;;;6.20;100.00;102496.72;5072164;28;20344;-72
2023/02/12 06:13:39;;;;;;;0.27;0.27;;;;;;;6.25;100.00;102497.69;5072441;28;20261;-73
2023/02/12 06:16:05;;;;;;;0.80;0.80;;;;;;;6.24;100.00;102489.78;5072158;28;20261;-73
2023/02/12 06:18:33;;;;;;;0.40;0.40;;;;;;;6.24;100.00;102495.22;5072223;28;20174;-73
2023/02/12 06:20:58;;;;;;;1.50;1.50;;;;;;;6.24;100.00;102489.78;5071870;28;20167;-73
2023/02/12 06:23:24;;;;;;;1.80;1.70;;;;;;;6.23;100.00;102482.72;5070729;28;20357;-72
2023/02/12 06:25:50;;;;;;;0.53;0.53;;;;;;;6.20;100.00;102481.25;5070855;28;20175;-73
2023/02/12 06:28:16;;;;;;;0.60;0.50;;;;;;;6.19;100.00;102478.78;5071991;28;20300;-73
2023/02/12 06:30:42;;;;;;;2.80;2.60;;;;;;;6.17;100.00;102479.03;5071615;28;20285;-73
2023/02/12 06:33:07;;;;;;;0.77;0.77;;;;;;;6.19;100.00;102481.50;5072038;28;20177;-74
2023/02/12 06:35:35;;;;;;;1.03;1.03;;;;;;;6.16;100.00;102488.22;5071826;28;20174;-73
2023/02/12 06:38:00;;;;;;;2.00;1.90;;;;;;;6.14;100.00;102490.34;5071669;28;20206;-73
2023/02/12 06:40:25;;;;;;;3.80;2.83;;;;;;;6.12;100.00;102492.47;5071679;28;20256;-72
2023/02/12 06:42:50;;;;;;;2.03;1.93;;;;;;;6.10;100.00;102482.91;5071683;28;20638;-73
2023/02/12 06:45:16;;;;;;;0.47;0.47;;;;;;;6.10;100.00;102482.91;5071565;28;20197;-73
2023/02/12 06:47:41;;;;;;;5.47;1.33;;;;;;;6.06;100.00;102487.94;5071405;28;20179;-73
2023/02/12 06:50:07;;;;;;;2.20;2.10;;;;;;;6.07;100.00;102489.59;5069452;28;20354;-72
2023/02/12 06:52:32;;;;;;;1.03;0.60;;;;;;;6.09;100.00;102497.53;5071535;28;20174;-71
2023/02/12 06:54:57;;;;;;;0.47;0.47;;;;;;;6.09;100.00;102500.25;5071526;28;20748;-77
2023/02/12 06:57:22;;;;;;;1.20;1.20;;;;;;;6.08;100.00;102504.84;5071100;28;20626;-73
2023/02/12 06:59:48;;;;;;;3.10;2.90;;;;;;;6.10;100.00;102499.19;5071465;28;20182;-72
2023/02/12 07:02:13;;;;;;;0.93;0.93;;;;;;;6.09;100.00;102497.53;5071244;28;20612;-72
2023/02/12 07:04:39;;;;;;;0.97;0.97;;;;;;;6.09;100.00;102503.78;5071557;28;20186;-72
2023/02/12 07:07:05;;;;;;;1.27;1.27;;;;;;;6.10;100.00;102508.16;5071111;28;20196;-70
2023/02/12 07:09:30;;;;;;;4.60;3.60;;;;;;;6.13;100.00;102517.72;5071391;28;20178;-71
2023/02/12 07:11:59;;;;;;;0.37;0.37;;;;;;;6.13;100.00;102523.16;5069675;28;20213;-70
2023/02/12 07:14:27;;;;;;;0.60;0.60;;;;;;;6.12;100.00;102516.06;5071263;28;20638;-70
2023/02/12 07:16:53;;;;;;;0.93;0.90;;;;;;;6.13;100.00;102520.44;5071219;28;20171;-73
2023/02/12 07:19:18;;;;;;;1.40;0.97;;;;;;;6.13;100.00;102523.16;5069716;28;20190;-70
2023/02/12 07:21:44;;;;;;;8.07;3.93;;;;;;;6.12;100.00;102527.75;5070878;28;20186;-71
2023/02/12 07:24:13;;;;;;;4.47;2.50;;;;;;;6.10;100.00;102515.47;5071081;28;20630;-70
2023/02/12 07:26:39;;;;;;;3.40;3.20;;;;;;;6.13;100.00;102515.00;5069596;28;20182;-76
2023/02/12 07:29:05;;;;;;;0.10;0.10;;;;;;;6.16;100.00;102523.50;5071297;28;20179;-76
2023/02/12 07:31:31;;;;;;;2.20;2.10;;;;;;;6.17;100.00;102524.34;5070711;28;20214;-75
2023/02/12 07:33:58;;;;;;;2.10;2.00;;;;;;;6.17;100.00;102521.63;5070839;28;20488;-75
2023/02/12 07:36:27;;;;;;;1.47;1.37;;;;;;;6.18;100.00;102524.09;5070926;28;20643;-76
2023/02/12 07:38:53;;;;;;;1.60;1.50;;;;;;;6.21;100.00;102530.94;5070852;28;20179;-76
2023/02/12 07:41:24;;;;;;;1.47;1.33;;;;;;;6.23;100.00;102531.56;5070688;28;20240;-77
2023/02/12 07:43:54;;;;;;;1.90;1.53;;;;;;;6.26;100.00;102531.94;5070619;28;20231;-76
2023/02/12 07:46:25;;;;;;;0.03;0.03;;;;;;;6.28;100.00;102534.41;5070952;28;20178;-77
2023/02/12 07:48:51;;;;;;;2.53;2.37;;;;;;;6.30;100.00;102529.56;5070654;28;20179;-77
2023/02/12 07:51:18;;;;;;;2.83;2.63;;;;;;;6.31;100.00;102527.69;5074111;28;20206;-77
2023/02/12 07:53:43;;;;;;;2.10;1.87;;;;;;;6.31;100.00;102528.50;5077340;28;20186;-77
2023/02/12 07:56:12;;;;;;;1.73;1.63;;;;;;;6.34;100.00;102530.75;5070766;28;20186;-76
2023/02/12 07:58:38;;;;;;;1.43;1.33;;;;;;;6.35;100.00;102528.88;5070236;28;20316;-77
2023/02/12 08:01:13;;;;;;;4.83;4.33;;;;;;;6.33;100.00;102539.97;5070380;28;20182;-73
2023/02/12 08:03:39;;;;;;;2.60;2.47;;;;;;;6.31;100.00;102535.81;5075080;28;20645;-76
2023/02/12 08:06:10;;;;;;;2.27;2.13;;;;;;;6.32;100.00;102541.03;5074555;28;20196;-77
2023/02/12 08:08:37;;;;;;;1.37;1.33;;;;;;;6.33;100.00;102534.53;5074629;28;20208;-75
2023/02/12 08:11:07;;;;;;;4.87;3.53;;;;;;;6.37;100.00;102538.47;5074239;28;20568;-81
2023/02/12 08:13:33;;;;;;;3.30;3.03;;;;;;;6.41;100.00;102531.50;5074735;28;20183;-74
2023/02/12 08:16:05;;;;;;;4.60;2.43;;;;;;;6.43;100.00;102532.09;5074343;28;20238;-71
2023/02/12 08:18:31;;;;;;;1.53;1.43;;;;;;;6.48;100.00;102531.38;5074487;28;20688;-76
2023/02/12 08:21:05;;;;;;;1.40;1.40;;;;;;;6.52;100.00;102530.72;5074178;28;20652;-79
2023/02/12 08:23:31;;;;;;;13.23;2.20;;;;;;;6.58;100.00;102531.66;5072812;28;20846;-74
2023/02/12 08:26:23;;;;;;;2.30;1.20;;;;;;;6.62;100.00;102534.72;5074332;28;20171;-76
2023/02/12 08:28:55;;;;;;;4.00;3.70;;;;;;;6.63;100.00;102537.19;5074354;28;20170;-79
2023/02/12 08:31:25;;;;;;;1.03;0.63;;;;;;;6.62;100.00;102540.97;5073975;28;20198;-75
2023/02/12 08:33:52;;;;;;;2.57;2.37;;;;;;;6.63;100.00;102534.47;5072832;28;20171;-72
2023/02/12 08:36:25;;;;;;;0.60;0.60;;;;;;;6.65;100.00;102545.09;5074389;28;20170;-71
2023/02/12 08:38:51;;;;;;;2.70;2.03;;;;;;;6.72;100.00;102548.56;5073916;28;20201;-71
2023/02/12 08:41:22;;;;;;;1.80;1.40;;;;;;;6.76;100.00;102553.28;5073825;28;20226;-71
2023/02/12 08:43:48;;;;;;;1.80;1.67;;;;;;;6.79;100.00;102552.00;5072817;28;20218;-76
2023/02/12 08:46:17;;;;;;;5.33;4.93;;;;;;;6.74;100.00;102555.41;5073857;28;20170;-82
2023/02/12 08:48:43;;;;;;;0.50;0.50;;;;;;;6.76;100.00;102563.31;5074059;28;20634;-74
2023/02/12 08:51:18;;;;;;;6.40;3.90;;;;;;;6.79;100.00;102566.41;5072408;28;20207;-75
2023/02/12 08:53:46;;;;;;;2.33;2.23;;;;;;;6.82;100.00;102576.00;5074177;28;20242;-77
2023/02/12 08:56:14;;;;;;;5.30;4.20;;;;;;;6.84;100.00;102566.53;5073756;28;20193;-72
2023/02/12 08:58:39;;;;;;;2.63;2.50;;;;;;;6.84;100.00;102574.69;5072164;28;20178;-76
2023/02/12 09:01:10;;;;;;;7.73;4.77;;;;;;;6.86;100.00;102577.16;5072299;28;20269;-76
2023/02/12 09:03:36;;;;;;;4.37;3.87;;;;;;;6.90;100.00;102581.06;5073721;28;20186;-76
2023/02/12 09:06:03;;;;;;;5.00;4.60;;;;;;;6.91;100.00;102581.91;5073823;28;20552;-74
2023/02/12 09:08:29;;;;;;;11.00;6.70;;;;;;;6.92;100.00;102586.25;5073436;28;20257;-76
2023/02/12 09:10:54;;;;;;;5.47;5.07;;;;;;;6.93;100.00;102591.47;5073368;28;20202;-76
2023/02/12 09:13:19;;;;;;;8.63;6.47;;;;;;;6.92;100.00;102584.38;5073386;28;20288;-72
2023/02/12 09:15:44;;;;;;;4.23;3.10;;;;;;;6.98;100.00;102593.50;5073648;28;20551;-81
2023/02/12 09:18:12;;;;;;;7.03;2.87;;;;;;;6.98;100.00;102594.31;5073413;28;20175;-74
2023/02/12 09:20:39;;;;;;;3.93;3.57;;;;;;;6.97;100.00;102600.81;5073137;28;20190;-72
2023/02/12 09:23:06;;;;;;;10.83;6.30;;;;;;;7.04;100.00;102608.84;5073150;28;20626;-72
2023/02/12 09:25:33;;;;;;;8.93;5.17;;;;;;;7.07;100.00;102598.34;5072826;28;20657;-73
2023/02/12 09:28:01;;;;;;;7.30;6.67;;;;;;;7.14;100.00;102606.41;5072782;28;20170;-74
2023/02/12 09:30:27;;;;;;;8.33;3.50;;;;;;;7.19;100.00;102608.41;5072469;28;20208;-82
2023/02/12 09:32:52;;;;;;;5.17;4.40;;;;;;;7.24;100.00;102613.97;5072772;28;20175;-73
2023/02/12 09:35:18;;;;;;;25.73;3.77;;;;;;;7.29;100.00;102619.53;5072768;28;20182;-74
2023/02/12 09:37:44;;;;;;;13.53;9.30;;;;;;;7.28;100.00;102624.13;5072492;28;20228;-77
2023/02/12 09:40:29;;;;;;;15.20;8.23;;;;;;;7.32;100.00;102628.03;5070992;28;20186;-75
2023/02/12 09:43:05;;;;;;;2.27;1.50;;;;;;;7.36;100.00;102631.91;5072778;28;20174;-72
2023/02/12 09:45:37;;;;;;;2.13;2.00;;;;;;;7.42;100.00;102636.44;5072490;28;20178;-74
2023/02/12 09:48:50;;;;;;;7.53;4.77;;;;;;;7.52;100.00;102641.25;5072515;28;20175;-75
2023/02/12 09:51:16;;;;;;;0.93;0.73;;;;;;;7.54;100.00;102643.78;5071544;28;20283;-74
2023/02/12 09:53:45;;;;;;;5.20;2.90;;;;;;;7.55;100.00;102646.25;5072376;28;20178;-74
2023/02/12 09:56:17;;;;;;;4.57;4.27;;;;;;;7.50;100.00;102650.72;5072273;28;20223;-72
2023/02/12 09:58:55;;;;;;;3.27;3.07;;;;;;;7.47;100.00;102647.44;5072256;28;20540;-72
2023/02/12 10:01:21;;;;;;;9.07;3.70;;;;;;;7.45;100.00;102641.41;5072132;28;20277;-73
2023/02/12 10:03:50;;;;;;;7.30;3.23;;;;;;;7.46;100.00;102647.66;5070851;28;20270;-73
2023/02/12 10:06:23;;;;;;;5.53;3.60;;;;;;;7.56;100.00;102653.34;5070636;28;20205;-72
2023/02/12 10:09:07;;;;;;;1.83;1.70;;;;;;;7.55;100.00;102651.69;5071961;28;20219;-72
2023/02/12 10:11:35;;;;;;;7.77;4.93;;;;;;;7.61;100.00;102658.06;5071707;28;20279;-72
2023/02/12 10:14:27;;;;;;;1.77;1.67;;;;;;;7.71;100.00;102658.31;5072014;28;20592;-72
2023/02/12 10:17:20;;;;;;;2.00;1.87;;;;;;;7.75;100.00;102663.03;5071783;28;20175;-77
2023/02/12 10:19:56;;;;;;;3.27;2.90;;;;;;;7.76;100.00;102666.56;5072169;28;20184;-72
2023/02/12 10:22:48;;;;;;;1.80;1.70;;;;;;;7.81;100.00;102669.44;5071617;28;20182;-72
2023/02/12 10:25:25;;;;;;;0.70;0.70;;;;;;;7.85;100.00;102676.03;5071042;28;20696;-72
2023/02/12 10:27:58;;;;;;;0.30;0.30;;;;;;;7.91;100.00;102672.34;5071760;28;20642;-72
2023/02/12 10:30:33;;;;;;;0.37;0.37;;;;;;;7.94;100.00;102673.78;5069957;28;20202;-73
2023/02/12 10:33:04;;;;;;;2.50;2.17;;;;;;;7.90;100.00;102678.88;5071620;28;20174;-73
2023/02/12 10:35:30;;;;;;;2.93;1.20;;;;;;;7.90;100.00;102684.31;5071578;28;20262;-72
2023/02/12 10:38:18;;;;;;;2.20;2.00;;;;;;;7.93;100.00;102672.94;5071283;28;20542;-75
2023/02/12 10:40:44;;;;;;;2.23;2.03;;;;;;;7.93;100.00;102685.72;5070004;28;20214;-73
2023/02/12 10:43:11;;;;;;;3.00;2.67;;;;;;;7.96;100.00;102677.94;5071391;28;20185;-73
2023/02/12 10:45:39;;;;;;;1.87;1.80;;;;;;;8.03;100.00;102677.78;5071339;28;20630;-75
2023/02/12 10:48:24;;;;;;;3.67;1.87;;;;;;;8.13;100.00;102675.28;5071101;28;20175;-74
2023/02/12 10:51:08;;;;;;;0.60;0.60;;;;;;;8.20;100.00;102675.16;5063329;28;20272;-73
2023/02/12 10:53:43;;;;;;;5.50;5.10;;;;;;;8.26;100.00;102687.81;5071341;28;20588;-75
2023/02/12 10:56:11;;;;;;;5.57;3.73;;;;;;;8.21;100.00;102685.81;5071094;28;20166;-74
2023/02/12 10:59:00;;;;;;;1.20;1.20;;;;;;;8.18;100.00;102682.72;5070500;28;20171;-73
2023/02/12 11:01:30;;;;;;;4.53;3.57;;;;;;;8.17;100.00;102690.06;5071219;28;20182;-76
2023/02/12 11:03:57;;;;;;;1.13;1.13;;;;;;;8.14;100.00;102684.28;5071064;28;20583;-72
2023/02/12 11:06:28;;;;;;;3.30;3.03;;;;;;;8.16;100.00;102685.69;5070773;28;20186;-72
2023/02/12 11:08:55;;;;;;;0.40;0.40;;;;;;;8.13;100.00;102675.28;5069447;28;20186;-76
2023/02/12 11:11:26;;;;;;;0.63;0.63;;;;;;;8.21;100.00;102680.34;5070578;28;20214;-73
2023/02/12 11:13:56;;;;;;;4.93;4.40;;;;;;;8.24;100.00;102679.88;5070938;28;20312;-71
2023/02/12 11:16:32;;;;;;;3.03;2.60;;;;;;;8.20;100.00;102688.75;5070740;28;20236;-73
2023/02/12 11:18:59;;;;;;;3.03;2.83;;;;;;;8.17;100.00;102684.63;5071100;28;20174;-76
2023/02/12 11:21:25;;;;;;;2.20;1.93;;;;;;;8.10;100.00;102672.19;5070270;28;20202;-74
2023/02/12 11:23:50;;;;;;;3.43;3.13;;;;;;;8.11;100.00;102673.88;5070928;28;20208;-71
2023/02/12 11:26:18;;;;;;;1.37;1.13;;;;;;;8.11;100.00;102672.00;5070739;28;20636;-73
2023/02/12 11:29:24;;;;;;;7.17;4.80;;;;;;;8.09;100.00;102671.38;5070606;28;20171;-72
2023/02/12 11:32:02;;;;;;;0.80;0.80;;;;;;;8.04;100.00;102671.28;5061931;28;20214;-72
2023/02/12 11:34:28;;;;;;;3.50;3.27;;;;;;;8.01;100.00;102666.31;5069455;28;20767;-74
2023/02/12 11:36:54;;;;;;;3.97;3.30;;;;;;;7.98;100.00;102661.34;5070343;28;20479;-71
2023/02/12 11:39:28;;;;;;;4.63;2.87;;;;;;;7.97;100.00;102665.16;5070434;28;20180;-71
2023/02/12 11:42:14;;;;;;;1.20;1.17;;;;;;;7.99;100.00;102665.72;5070212;28;20174;-72
2023/02/12 11:44:42;;;;;;;3.83;3.40;;;;;;;8.06;100.00;102655.53;5070531;28;20182;-72